createdAt,value
2023-02-23T00:01:33.072Z,35.00
2023-02-23T00:05:36.407Z,34.70
2023-02-23T00:09:50.213Z,31.57
2023-02-23T00:13:53.080Z,33.93
2023-02-23T00:17:55.704Z,32.13
2023-02-23T00:21:58.124Z,34.93
2023-02-23T00:25:59.095Z,31.53
2023-02-23T00:30:00.248Z,31.80
2023-02-23T00:34:02.803Z,30.17
2023-02-23T00:38:03.911Z,29.17
2023-02-23T00:42:06.065Z,29.90
2023-02-23T00:46:07.271Z,30.27
2023-02-23T00:50:12.367Z,30.00
2023-02-23T00:54:15.575Z,30.37
2023-02-23T00:58:16.776Z,30.00
2023-02-23T01:02:17.884Z,30.03
2023-02-23T01:06:19.410Z,29.53
2023-02-23T01:10:20.568Z,32.50
2023-02-23T01:14:22.382Z,32.33
2023-02-23T01:18:23.781Z,30.83
2023-02-23T01:22:24.906Z,28.87
2023-02-23T01:26:28.765Z,30.13
2023-02-23T01:30:30.077Z,32.70
2023-02-23T01:34:31.139Z,28.90
2023-02-23T01:38:32.184Z,28.53
2023-02-23T01:42:39.103Z,28.27
2023-02-23T01:46:45.798Z,29.07
2023-02-23T01:50:50.741Z,27.33
2023-02-23T01:54:54.427Z,28.87
2023-02-23T01:58:58.325Z,30.23
2023-02-23T02:03:02.473Z,28.20
2023-02-23T02:07:04.189Z,27.30
2023-02-23T02:11:07.062Z,26.07
2023-02-23T02:15:11.542Z,26.07
2023-02-23T02:19:25.537Z,26.87
2023-02-23T02:23:42.506Z,29.97
2023-02-23T02:28:21.740Z,30.40
2023-02-23T02:32:32.648Z,28.43
2023-02-23T02:36:49.583Z,30.00
2023-02-23T02:40:54.365Z,31.43
2023-02-23T02:45:17.366Z,36.47
2023-02-23T02:49:26.103Z,37.17
2023-02-23T02:53:37.151Z,35.87
2023-02-23T02:57:39.839Z,37.33
2023-02-23T03:01:59.218Z,32.40
2023-02-23T03:06:18.506Z,29.20
2023-02-23T03:10:53.837Z,32.10
2023-02-23T03:15:40.321Z,34.17
2023-02-23T03:20:15.551Z,36.40
2023-02-23T03:24:45.085Z,36.30
2023-02-23T03:29:08.491Z,35.70
2023-02-23T03:33:37.605Z,34.53
2023-02-23T03:38:17.793Z,35.37
2023-02-23T03:42:40.602Z,36.33
2023-02-23T03:47:02.529Z,35.67
2023-02-23T03:51:25.446Z,36.63
2023-02-23T03:55:48.300Z,35.80
2023-02-23T04:00:17.788Z,40.73
2023-02-23T04:04:39.712Z,35.83
2023-02-23T04:08:59.637Z,34.30
2023-02-23T04:13:19.681Z,34.67
2023-02-23T04:17:23.331Z,34.20
2023-02-23T04:21:24.533Z,32.60
2023-02-23T04:25:26.257Z,33.00
2023-02-23T04:29:28.117Z,31.87
2023-02-23T04:33:29.259Z,32.03
2023-02-23T04:37:30.371Z,32.50
2023-02-23T04:41:31.373Z,30.97
2023-02-23T04:45:33.000Z,33.17
2023-02-23T04:49:34.249Z,32.70
2023-02-23T04:53:35.261Z,34.67
2023-02-23T04:57:36.264Z,30.37
2023-02-23T05:01:37.463Z,29.93
2023-02-23T05:05:38.989Z,30.23
2023-02-23T05:09:41.333Z,31.00
2023-02-23T05:13:42.444Z,30.17
2023-02-23T05:17:43.592Z,31.90
2023-02-23T05:21:44.804Z,31.83
2023-02-23T05:25:46.064Z,31.17
2023-02-23T05:29:47.080Z,30.10
2023-02-23T05:33:48.431Z,33.80
2023-02-23T05:37:49.418Z,32.07
2023-02-23T05:41:50.548Z,34.43
2023-02-23T05:45:51.751Z,34.13
2023-02-23T05:49:52.938Z,33.92
2023-02-23T05:53:54.059Z,36.57
2023-02-23T05:57:55.180Z,34.27
2023-02-23T06:01:56.231Z,36.90
2023-02-23T06:05:58.545Z,40.23
2023-02-23T06:10:02.727Z,37.60
2023-02-23T06:14:03.695Z,38.10
2023-02-23T06:18:05.234Z,34.23
2023-02-23T06:22:06.203Z,33.37
2023-02-23T06:26:07.847Z,35.93
2023-02-23T06:30:10.696Z,35.33
2023-02-23T06:34:11.838Z,35.53
2023-02-23T06:38:13.018Z,36.87
2023-02-23T06:42:14.879Z,35.33
2023-02-23T06:46:15.867Z,36.60
2023-02-23T06:50:17.564Z,38.57
2023-02-23T06:54:18.946Z,37.17
2023-02-23T06:58:19.899Z,37.03
2023-02-23T07:02:20.916Z,38.67
2023-02-23T07:06:21.968Z,36.03
2023-02-23T07:10:22.977Z,39.43
2023-02-23T07:14:26.898Z,41.50
2023-02-23T07:18:27.175Z,40.53
2023-02-23T07:22:29.575Z,38.83
2023-02-23T07:26:34.190Z,40.07
2023-02-23T07:30:35.176Z,38.73
2023-02-23T07:34:37.291Z,44.27
2023-02-23T07:38:38.410Z,39.30
2023-02-23T07:42:39.449Z,41.10
2023-02-23T07:46:41.410Z,42.83
2023-02-23T07:50:42.619Z,38.63
2023-02-23T07:54:43.840Z,38.87
2023-02-23T07:58:45.011Z,40.67
2023-02-23T08:02:46.343Z,39.97
2023-02-23T08:06:47.605Z,35.37
2023-02-23T08:10:50.023Z,38.53
2023-02-23T08:14:52.227Z,33.03
2023-02-23T08:18:53.812Z,33.80
2023-02-23T08:22:55.342Z,32.00
2023-02-23T08:26:58.352Z,32.40
2023-02-23T08:30:59.748Z,29.17
2023-02-23T08:35:02.433Z,30.77
2023-02-23T08:39:05.506Z,30.50
2023-02-23T08:43:06.660Z,29.70
2023-02-23T08:47:07.715Z,29.87
2023-02-23T08:51:09.237Z,30.67
2023-02-23T08:55:11.396Z,30.27
2023-02-23T08:59:13.817Z,28.30
2023-02-23T09:03:15.008Z,30.17
2023-02-23T09:07:17.143Z,35.20
2023-02-23T09:11:18.501Z,31.93
2023-02-23T09:15:20.200Z,33.27
2023-02-23T09:19:21.438Z,33.70
2023-02-23T09:23:23.702Z,28.70
2023-02-23T09:27:25.008Z,28.27
2023-02-23T09:31:26.949Z,30.77
2023-02-23T09:35:28.035Z,27.73
2023-02-23T09:39:37.707Z,25.47
2023-02-23T09:43:42.065Z,25.60
2023-02-23T09:48:01.432Z,23.13
2023-02-23T09:52:04.409Z,23.10
2023-02-23T09:56:19.547Z,22.30
2023-02-23T10:00:27.218Z,21.43
2023-02-23T10:04:38.286Z,20.60
2023-02-23T10:08:49.269Z,19.40
2023-02-23T10:13:00.185Z,14.80
2023-02-23T10:17:22.666Z,14.20
2023-02-23T10:21:41.717Z,15.30
2023-02-23T10:25:48.988Z,12.87
2023-02-23T10:29:54.347Z,12.80
2023-02-23T10:33:59.206Z,12.20
2023-02-23T10:38:01.861Z,12.20
2023-02-23T10:42:06.116Z,12.27
2023-02-23T10:46:11.149Z,11.77
2023-02-23T10:50:13.657Z,12.00
2023-02-23T10:54:35.145Z,9.37
2023-02-23T10:58:45.938Z,9.80
2023-02-23T11:02:47.709Z,9.83
2023-02-23T11:06:50.218Z,9.33
2023-02-23T11:10:57.617Z,9.83
2023-02-23T11:14:58.887Z,9.43
2023-02-23T11:19:04.391Z,9.97
2023-02-23T11:23:27.212Z,7.77
2023-02-23T11:27:28.562Z,8.50
2023-02-23T11:31:34.043Z,6.87
2023-02-23T11:35:36.198Z,7.90
2023-02-23T11:39:39.132Z,7.50
2023-02-23T11:43:44.143Z,7.03
2023-02-23T11:47:49.544Z,9.33
2023-02-23T11:51:53.316Z,11.77
2023-02-23T11:55:57.283Z,11.27
2023-02-23T12:00:00.950Z,12.47
2023-02-23T12:04:02.500Z,12.97
2023-02-23T12:08:10.533Z,14.60
2023-02-23T12:16:41.218Z,16.73
2023-02-23T12:20:47.881Z,17.33
2023-02-23T12:24:55.566Z,17.87
2023-02-23T12:29:18.416Z,18.07
2023-02-23T12:33:28.175Z,17.23
2023-02-23T12:37:35.074Z,18.07
2023-02-23T12:41:45.992Z,15.63
2023-02-23T12:45:56.914Z,17.03
2023-02-23T12:50:03.576Z,15.90
2023-02-23T12:54:05.384Z,16.30
2023-02-23T12:58:22.185Z,16.10
2023-02-23T13:02:42.260Z,17.03
2023-02-23T13:06:59.053Z,18.30
2023-02-23T13:11:06.972Z,18.70
2023-02-23T13:15:21.075Z,19.17
2023-02-23T13:19:43.957Z,18.97
2023-02-23T13:24:01.033Z,19.23
2023-02-23T13:28:02.984Z,21.27
2023-02-23T13:32:07.281Z,21.33
2023-02-23T13:36:09.098Z,21.63
2023-02-23T13:40:26.042Z,23.33
2023-02-23T13:44:31.262Z,22.37
2023-02-23T13:48:59.900Z,24.03
2023-02-23T13:53:04.537Z,24.27
2023-02-23T13:57:16.232Z,32.23
2023-02-23T14:01:23.934Z,22.83
2023-02-23T14:05:31.989Z,20.07
2023-02-23T14:09:40.245Z,23.37
2023-02-23T14:13:45.395Z,22.97
2023-02-23T14:17:58.782Z,21.37
2023-02-23T14:22:08.698Z,23.67
2023-02-23T14:26:14.619Z,20.90
2023-02-23T14:30:19.942Z,23.70
2023-02-23T14:34:24.090Z,22.93
2023-02-23T14:38:47.034Z,23.97
2023-02-23T14:42:38.053Z,23.33
2023-02-23T14:46:49.549Z,24.10
2023-02-23T14:50:51.031Z,24.27
2023-02-23T14:54:54.796Z,23.17
2023-02-23T14:58:58.015Z,21.07
2023-02-23T15:03:04.868Z,20.97
2023-02-23T15:07:08.790Z,18.97
2023-02-23T15:11:12.905Z,19.10
2023-02-23T15:15:20.337Z,18.63
2023-02-23T15:19:23.402Z,18.00
2023-02-23T15:23:24.540Z,18.17
2023-02-23T15:27:34.236Z,20.07
2023-02-23T15:31:36.057Z,19.03
2023-02-23T15:35:44.889Z,16.90
2023-02-23T15:39:52.720Z,18.97
2023-02-23T15:43:56.596Z,19.30
2023-02-23T15:48:01.615Z,18.67
2023-02-23T15:52:13.829Z,18.13
2023-02-23T15:56:24.460Z,20.13
2023-02-23T16:00:35.285Z,18.70
2023-02-23T16:04:40.605Z,18.07
2023-02-23T16:08:56.996Z,18.03
2023-02-23T16:13:00.160Z,17.07
2023-02-23T16:17:10.850Z,18.57
2023-02-23T16:21:06.249Z,19.97
2023-02-23T16:25:11.140Z,22.50
2023-02-23T16:29:22.992Z,24.67
2023-02-23T16:33:42.846Z,24.47
2023-02-23T16:37:59.879Z,22.47
2023-02-23T16:42:01.079Z,24.13
2023-02-23T16:46:02.392Z,26.10
2023-02-23T16:50:19.780Z,27.87
2023-02-23T16:54:18.120Z,30.97
2023-02-23T16:58:24.075Z,28.87
2023-02-23T17:02:25.326Z,30.53
2023-02-23T17:06:26.826Z,33.13
2023-02-23T17:10:31.727Z,35.57
2023-02-23T17:14:32.900Z,41.28
2023-02-23T17:18:36.149Z,42.23
2023-02-23T17:22:37.348Z,44.40
2023-02-23T17:26:39.297Z,36.37
2023-02-23T17:30:42.099Z,35.97
2023-02-23T17:34:43.211Z,38.03
2023-02-23T17:38:44.838Z,40.83
2023-02-23T17:42:45.911Z,67.50
2023-02-23T17:46:47.048Z,39.45
2023-02-23T17:50:48.603Z,34.43
2023-02-23T17:54:49.804Z,35.63
2023-02-23T17:58:50.937Z,34.97
2023-02-23T18:02:52.227Z,34.80
2023-02-23T18:06:53.722Z,31.23
2023-02-23T18:11:16.779Z,31.23
2023-02-23T18:15:19.922Z,33.47
2023-02-23T18:19:20.948Z,32.73
2023-02-23T18:23:24.794Z,33.70
2023-02-23T18:27:25.931Z,34.13
2023-02-23T18:31:27.786Z,29.67
2023-02-23T18:35:38.227Z,34.10
2023-02-23T18:39:39.221Z,28.97
2023-02-23T18:43:40.297Z,28.50
2023-02-23T18:47:42.282Z,29.10
2023-02-23T18:51:43.735Z,29.40
2023-02-23T18:55:45.473Z,32.25
2023-02-23T18:59:46.838Z,28.33
2023-02-23T19:03:51.113Z,32.43
2023-02-23T19:07:52.275Z,39.43
2023-02-23T19:11:54.173Z,32.97
2023-02-23T19:15:57.547Z,30.03
2023-02-23T19:20:00.128Z,29.60
2023-02-23T19:24:02.409Z,31.03
2023-02-23T19:28:03.829Z,32.43
2023-02-23T19:32:05.281Z,33.17
2023-02-23T19:36:08.839Z,32.03
2023-02-23T19:40:11.284Z,31.03
2023-02-23T19:44:12.644Z,31.10
2023-02-23T19:48:15.359Z,33.53
2023-02-23T19:52:16.391Z,34.90
2023-02-23T19:56:17.830Z,36.17
2023-02-23T20:00:20.268Z,32.20
2023-02-23T20:04:21.425Z,31.80
2023-02-23T20:08:23.875Z,33.40
2023-02-23T20:12:24.993Z,36.33
2023-02-23T20:16:28.237Z,35.77
2023-02-23T20:20:31.080Z,38.07
2023-02-23T20:24:32.117Z,38.67
2023-02-23T20:28:33.299Z,40.50
2023-02-23T20:32:34.476Z,36.50
2023-02-23T20:36:36.641Z,37.37
2023-02-23T20:40:38.052Z,34.47
2023-02-23T20:44:39.371Z,32.53
2023-02-23T20:48:41.285Z,31.90
2023-02-23T20:52:43.826Z,36.33
2023-02-23T20:56:45.203Z,38.63
2023-02-23T21:00:46.305Z,33.20
2023-02-23T21:04:47.462Z,35.73
2023-02-23T21:08:52.712Z,36.43
2023-02-23T21:12:53.875Z,37.43
2023-02-23T21:16:54.893Z,34.47
2023-02-23T21:20:58.209Z,34.40
2023-02-23T21:25:00.242Z,37.03
2023-02-23T21:29:01.814Z,35.13
2023-02-23T21:33:03.182Z,35.53
2023-02-23T21:37:04.220Z,36.37
2023-02-23T21:41:07.691Z,34.27
2023-02-23T21:45:11.685Z,33.80
2023-02-23T21:49:12.903Z,33.80
2023-02-23T21:53:13.782Z,34.13
2023-02-23T21:57:15.008Z,33.17
2023-02-23T22:01:22.488Z,34.97
2023-02-23T22:05:23.802Z,34.13
2023-02-23T22:09:24.782Z,32.80
2023-02-23T22:13:25.778Z,32.47
2023-02-23T22:17:26.921Z,35.03
2023-02-23T22:21:28.730Z,36.43
2023-02-23T22:25:29.832Z,33.30
2023-02-23T22:29:30.868Z,36.10
2023-02-23T22:33:32.409Z,31.30
2023-02-23T22:37:33.438Z,33.57
2023-02-23T22:41:37.685Z,32.83
2023-02-23T22:45:40.560Z,33.00
2023-02-23T22:49:41.669Z,30.87
2023-02-23T22:53:43.236Z,31.57
2023-02-23T22:57:46.810Z,30.63
2023-02-23T23:01:49.729Z,30.10
2023-02-23T23:05:51.098Z,31.27
2023-02-23T23:09:52.623Z,27.87
2023-02-23T23:13:59.114Z,28.93
2023-02-23T23:18:01.959Z,32.65
2023-02-23T23:22:03.182Z,28.03
2023-02-23T23:26:05.970Z,29.33
2023-02-23T23:30:10.562Z,26.97
2023-02-23T23:34:12.773Z,27.40
2023-02-23T23:38:13.886Z,27.47
2023-02-23T23:42:14.846Z,30.43
2023-02-23T23:46:21.126Z,27.60
2023-02-23T23:50:24.145Z,26.20
2023-02-23T23:54:29.009Z,29.37
2023-02-23T23:58:30.787Z,27.30
